createdAt,value
2022-08-26T05:03:10.694Z,69.00
2022-08-26T05:05:52.232Z,65.36
2022-08-26T05:08:23.250Z,62.81
2022-08-26T05:10:55.810Z,60.80
2022-08-26T05:13:27.980Z,57.41
2022-08-26T05:16:04.923Z,55.93
2022-08-26T05:18:35.004Z,57.75
2022-08-26T05:21:04.050Z,65.31
2022-08-26T05:23:35.878Z,65.29
2022-08-26T05:26:08.690Z,62.06
2022-08-26T05:28:38.663Z,57.34
2022-08-26T05:31:19.250Z,55.90
2022-08-26T05:33:47.504Z,57.59
2022-08-26T05:36:19.987Z,65.10
2022-08-26T05:38:49.796Z,65.71
2022-08-26T05:41:34.398Z,62.95
2022-08-26T05:44:12.556Z,61.53
2022-08-26T05:46:44.639Z,57.94
2022-08-26T05:49:16.220Z,56.59
2022-08-26T05:54:58.911Z,64.74
2022-08-26T05:57:30.471Z,65.21
2022-08-26T05:59:59.694Z,61.82
2022-08-26T06:02:30.132Z,57.85
2022-08-26T06:04:59.298Z,56.35
2022-08-26T06:07:48.352Z,58.35
2022-08-26T06:10:33.502Z,64.48
2022-08-26T06:13:11.612Z,64.48
2022-08-26T06:15:47.473Z,61.89
2022-08-26T06:18:22.332Z,60.83
2022-08-26T06:20:58.027Z,57.42
2022-08-26T06:23:52.473Z,56.38
2022-08-26T06:26:21.671Z,58.25
2022-08-26T06:28:51.344Z,64.91
2022-08-26T06:31:21.825Z,66.02
2022-08-26T06:33:52.300Z,62.90
2022-08-26T06:36:26.064Z,61.21
2022-08-26T06:39:08.242Z,57.33
2022-08-26T06:41:43.280Z,55.92
2022-08-26T06:44:15.540Z,57.67
2022-08-26T06:46:46.212Z,64.00
2022-08-26T06:49:25.805Z,64.27
2022-08-26T06:52:00.761Z,61.32
2022-08-26T06:54:32.022Z,60.28
2022-08-26T06:57:01.520Z,57.49
2022-08-26T06:59:31.944Z,56.97
2022-08-26T07:02:08.605Z,58.56
2022-08-26T07:04:43.021Z,64.71
2022-08-26T07:07:16.961Z,65.49
2022-08-26T07:09:47.456Z,62.91
2022-08-26T07:12:21.687Z,61.55
2022-08-26T07:14:50.884Z,58.58
2022-08-26T07:17:20.439Z,56.84
2022-08-26T07:19:49.680Z,57.64
2022-08-26T07:22:19.321Z,63.81
2022-08-26T07:24:48.500Z,64.23
2022-08-26T07:27:18.924Z,61.21
2022-08-26T07:29:48.124Z,59.93
2022-08-26T07:32:22.992Z,56.04
2022-08-26T07:34:52.251Z,55.42
2022-08-26T07:37:21.295Z,57.07
2022-08-26T07:39:52.131Z,59.17
2022-08-26T07:42:21.814Z,64.93
2022-08-26T07:44:51.446Z,65.15
2022-08-26T07:47:25.477Z,61.23
2022-08-26T07:49:58.649Z,57.79
2022-08-26T07:52:30.726Z,56.45
2022-08-26T07:55:02.992Z,56.41
2022-08-26T07:57:32.923Z,58.16
2022-08-26T08:00:18.548Z,64.76
2022-08-26T08:02:49.383Z,65.73
2022-08-26T08:05:23.240Z,61.95
2022-08-26T08:08:19.726Z,57.46
2022-08-26T08:10:57.527Z,56.01
2022-08-26T08:13:29.683Z,57.58
2022-08-26T08:15:58.804Z,63.49
2022-08-26T08:18:29.341Z,63.02
2022-08-26T08:21:10.925Z,57.68
2022-08-26T08:23:54.342Z,53.93
2022-08-26T08:26:25.663Z,55.18
2022-08-26T08:28:57.913Z,56.45
2022-08-26T08:34:29.611Z,57.75
2022-08-26T08:36:59.241Z,59.20
2022-08-26T08:39:32.575Z,66.09
2022-08-26T08:42:31.550Z,64.61
2022-08-26T08:45:14.453Z,57.80
2022-08-26T08:48:01.179Z,54.71
2022-08-26T08:50:36.605Z,55.31
2022-08-26T08:53:32.445Z,57.62
2022-08-26T08:56:24.358Z,57.95
2022-08-26T08:59:20.281Z,57.75
2022-08-26T09:01:52.458Z,59.44
2022-08-26T09:05:01.194Z,58.12
2022-08-26T09:07:43.786Z,60.43
2022-08-26T09:10:29.167Z,62.11
2022-08-26T09:13:00.598Z,66.09
2022-08-26T09:16:01.462Z,58.27
2022-08-26T09:19:06.007Z,55.37
2022-08-26T09:21:35.497Z,56.14
2022-08-26T09:24:05.165Z,55.85
2022-08-26T09:26:40.058Z,54.88
2022-08-26T09:29:34.809Z,57.68
2022-08-26T09:32:26.100Z,55.27
2022-08-26T09:35:07.970Z,55.59
2022-08-26T09:40:35.345Z,58.23
2022-08-26T09:43:22.993Z,56.99
2022-08-26T09:46:28.431Z,58.13
2022-08-26T09:48:57.519Z,56.63
2022-08-26T09:51:32.747Z,55.32
2022-08-26T09:54:08.205Z,57.39
2022-08-26T09:56:40.111Z,54.56
2022-08-26T09:59:12.703Z,55.80
2022-08-26T10:01:45.013Z,55.35
2022-08-26T10:04:31.237Z,55.11
2022-08-26T10:07:10.897Z,55.79
2022-08-26T10:09:44.958Z,54.61
2022-08-26T10:12:22.405Z,53.59
2022-08-26T10:15:04.442Z,52.62
2022-08-26T10:18:01.722Z,52.96
2022-08-26T10:20:38.874Z,53.03
2022-08-26T10:23:19.945Z,50.53
2022-08-26T10:26:03.514Z,49.61
2022-08-26T10:28:54.501Z,50.44
2022-08-26T10:31:28.741Z,49.82
2022-08-26T10:34:00.188Z,49.93
2022-08-26T10:37:13.522Z,49.19
2022-08-26T10:40:01.148Z,50.87
2022-08-26T10:42:51.777Z,50.14
2022-08-26T10:45:28.093Z,49.42
2022-08-26T10:48:08.246Z,48.46
2022-08-26T10:50:44.621Z,49.40
2022-08-26T10:53:44.313Z,48.65
2022-08-26T10:57:01.974Z,49.58
2022-08-26T11:00:27.557Z,48.31
2022-08-26T11:03:28.940Z,49.75
2022-08-26T11:06:19.657Z,47.67
2022-08-26T11:08:54.222Z,47.31
2022-08-26T11:11:42.212Z,45.82
2022-08-26T11:14:28.670Z,46.25
2022-08-26T11:17:04.339Z,45.29
2022-08-26T11:20:01.531Z,44.79
2022-08-26T11:22:47.668Z,44.78
2022-08-26T11:25:30.070Z,44.92
2022-08-26T11:28:01.493Z,45.00
2022-08-26T11:30:43.115Z,42.98
2022-08-26T11:33:48.104Z,42.92
2022-08-26T11:36:55.306Z,41.73
2022-08-26T11:39:36.967Z,41.70
2022-08-26T11:42:43.876Z,41.27
2022-08-26T11:45:41.533Z,40.77
2022-08-26T11:48:31.836Z,40.65
2022-08-26T11:51:14.342Z,41.32
2022-08-26T11:53:47.203Z,40.98
2022-08-26T11:56:36.222Z,41.15
2022-08-26T11:59:11.332Z,41.54
2022-08-26T12:01:50.478Z,40.40
2022-08-26T12:04:41.589Z,39.85
2022-08-26T12:07:10.885Z,40.33
2022-08-26T12:10:02.241Z,39.59
2022-08-26T12:12:39.121Z,40.04
2022-08-26T12:15:19.830Z,40.31
2022-08-26T12:17:54.458Z,39.71
2022-08-26T12:20:49.455Z,40.62
2022-08-26T12:23:28.598Z,40.89
2022-08-26T12:26:24.282Z,39.99
2022-08-26T12:29:20.097Z,39.43
2022-08-26T12:32:18.746Z,38.98
2022-08-26T12:34:49.531Z,38.23
2022-08-26T12:37:19.279Z,37.24
2022-08-26T12:39:49.692Z,37.39
2022-08-26T12:42:18.702Z,38.11
2022-08-26T12:45:07.099Z,38.30
2022-08-26T12:47:43.517Z,39.21
2022-08-26T12:50:46.714Z,38.07
2022-08-26T12:53:26.426Z,37.90
2022-08-26T12:55:59.633Z,37.89
2022-08-26T12:58:30.726Z,37.80
2022-08-26T13:01:22.954Z,38.54
2022-08-26T13:03:53.453Z,38.12
2022-08-26T13:06:32.278Z,38.84
2022-08-26T13:09:10.388Z,37.38
2022-08-26T13:11:46.041Z,36.83
2022-08-26T13:14:24.037Z,37.72
2022-08-26T13:16:54.426Z,36.98
2022-08-26T13:19:26.604Z,36.51
2022-08-26T13:21:59.442Z,36.25
2022-08-26T13:24:40.546Z,36.77
2022-08-26T13:27:14.993Z,37.09
2022-08-26T13:29:44.121Z,37.25
2022-08-26T13:32:15.447Z,37.21
2022-08-26T13:34:51.275Z,37.56
2022-08-26T13:37:24.385Z,36.69
2022-08-26T13:40:08.120Z,36.80
2022-08-26T13:42:37.184Z,36.66
2022-08-26T13:45:19.733Z,36.78
2022-08-26T13:47:48.797Z,35.91
2022-08-26T13:50:18.463Z,36.42
2022-08-26T13:52:47.864Z,36.15
2022-08-26T13:55:17.062Z,36.86
2022-08-26T13:57:46.393Z,37.69
2022-08-26T14:00:19.096Z,38.16
2022-08-26T14:02:49.024Z,37.62
2022-08-26T14:05:18.400Z,39.23
2022-08-26T14:07:47.893Z,38.34
2022-08-26T14:10:17.130Z,38.08
2022-08-26T14:12:46.477Z,38.30
2022-08-26T14:15:18.464Z,38.07
2022-08-26T14:17:49.709Z,38.19
2022-08-26T14:20:28.035Z,37.83
2022-08-26T14:23:13.307Z,38.25
2022-08-26T14:25:44.333Z,38.49
2022-08-26T14:28:13.765Z,38.69
2022-08-26T14:30:45.094Z,39.40
2022-08-26T14:33:17.128Z,38.55
2022-08-26T14:35:49.019Z,38.75
2022-08-26T14:38:19.427Z,38.95
2022-08-26T14:40:48.915Z,39.08
2022-08-26T14:43:18.221Z,39.68
2022-08-26T14:45:48.577Z,38.93
2022-08-26T14:48:17.759Z,38.61
2022-08-26T14:50:47.348Z,38.76
2022-08-26T14:53:36.319Z,39.05
2022-08-26T14:56:06.298Z,39.38
2022-08-26T14:58:35.384Z,39.18
2022-08-26T15:01:04.973Z,39.60
2022-08-26T15:03:34.705Z,39.22
2022-08-26T15:06:05.010Z,39.07
2022-08-26T15:08:37.248Z,39.75
2022-08-26T15:11:06.841Z,39.66
2022-08-26T15:13:36.360Z,39.73
2022-08-26T15:16:08.910Z,39.44
2022-08-26T15:18:38.526Z,39.90
2022-08-26T15:21:08.698Z,40.16
2022-08-26T15:23:39.763Z,40.62
2022-08-26T15:26:12.525Z,40.31
2022-08-26T15:28:43.302Z,40.33
2022-08-26T15:31:12.875Z,40.13
2022-08-26T15:33:43.237Z,40.11
2022-08-26T15:36:12.731Z,40.38
2022-08-26T15:38:43.217Z,40.54
2022-08-26T15:41:12.347Z,40.05
2022-08-26T15:43:41.587Z,40.42
2022-08-26T15:46:14.459Z,40.56
2022-08-26T15:48:44.137Z,40.70
2022-08-26T15:51:35.941Z,40.88
2022-08-26T15:54:24.114Z,40.80
2022-08-26T15:56:53.613Z,40.84
2022-08-26T15:59:23.203Z,40.49
2022-08-26T16:01:53.428Z,40.83
2022-08-26T16:04:22.582Z,41.12
2022-08-26T16:06:52.683Z,40.84
2022-08-26T16:09:27.953Z,41.28
2022-08-26T16:12:00.313Z,41.71
2022-08-26T16:14:29.510Z,41.75
2022-08-26T16:16:58.761Z,41.94
2022-08-26T16:19:28.136Z,42.08
2022-08-26T16:21:57.463Z,42.52
2022-08-26T16:24:30.380Z,42.35
2022-08-26T16:27:03.239Z,42.71
2022-08-26T16:29:33.420Z,42.70
2022-08-26T16:32:09.085Z,42.59
2022-08-26T16:34:38.190Z,42.93
2022-08-26T16:37:28.750Z,43.18
2022-08-26T16:39:58.090Z,43.16
2022-08-26T16:42:28.486Z,43.19
2022-08-26T16:45:00.765Z,43.43
2022-08-26T16:47:29.914Z,43.51
2022-08-26T16:49:59.415Z,43.36
2022-08-26T16:52:31.371Z,43.55
2022-08-26T16:55:00.763Z,43.60
2022-08-26T16:57:29.965Z,43.73
2022-08-26T16:59:59.474Z,43.59
2022-08-26T17:02:33.483Z,43.98
2022-08-26T17:05:03.058Z,43.99
2022-08-26T17:07:36.614Z,44.15
2022-08-26T17:10:09.724Z,44.44
2022-08-26T17:12:40.689Z,44.42
2022-08-26T17:15:11.233Z,44.57
2022-08-26T17:17:41.271Z,44.63
2022-08-26T17:20:20.093Z,45.06
2022-08-26T17:22:52.161Z,45.14
2022-08-26T17:25:28.896Z,45.41
2022-08-26T17:27:59.353Z,45.66
2022-08-26T17:30:28.452Z,46.68
2022-08-26T17:33:00.491Z,46.80
2022-08-26T17:35:29.783Z,48.11
2022-08-26T17:38:00.618Z,48.13
2022-08-26T17:40:31.012Z,48.46
2022-08-26T17:43:00.835Z,49.09
2022-08-26T17:45:29.857Z,49.54
2022-08-26T17:47:59.206Z,49.77
2022-08-26T17:50:28.578Z,49.62
2022-08-26T17:52:57.530Z,49.46
2022-08-26T17:55:26.646Z,49.58
2022-08-26T17:57:55.949Z,49.89
2022-08-26T18:00:28.400Z,50.32
2022-08-26T18:03:00.749Z,50.15
2022-08-26T18:05:30.616Z,50.55
2022-08-26T18:08:00.716Z,50.79
2022-08-26T18:10:29.758Z,51.20
2022-08-26T18:12:58.842Z,51.52
2022-08-26T18:15:28.366Z,52.03
2022-08-26T18:17:57.407Z,52.98
2022-08-26T18:20:26.946Z,52.73
2022-08-26T18:22:56.124Z,53.12
2022-08-26T18:25:25.124Z,53.11
2022-08-26T18:27:54.239Z,53.16
2022-08-26T18:30:23.520Z,54.03
2022-08-26T18:32:53.728Z,54.13
2022-08-26T18:35:22.728Z,53.88
2022-08-26T18:37:51.638Z,54.01
2022-08-26T18:40:21.873Z,54.17
2022-08-26T18:42:53.712Z,54.08
2022-08-26T18:45:23.417Z,54.06
2022-08-26T18:47:52.813Z,54.56
2022-08-26T18:50:22.227Z,54.66
2022-08-26T18:52:55.374Z,54.95
2022-08-26T18:55:24.507Z,55.35
2022-08-26T18:57:53.664Z,55.46
2022-08-26T19:00:23.121Z,55.59
2022-08-26T19:02:55.719Z,56.03
2022-08-26T19:05:26.110Z,56.65
2022-08-26T19:07:55.927Z,56.30
2022-08-26T19:10:25.305Z,56.58
2022-08-26T19:12:57.427Z,56.85
2022-08-26T19:15:29.967Z,56.73
2022-08-26T19:17:59.695Z,56.96
2022-08-26T19:20:28.674Z,57.20
2022-08-26T19:23:02.621Z,57.20
2022-08-26T19:25:46.230Z,57.06
2022-08-26T19:28:41.316Z,56.98
2022-08-26T19:31:13.044Z,57.14
2022-08-26T19:33:45.495Z,56.99
2022-08-26T19:36:22.262Z,57.14
2022-08-26T19:38:57.105Z,57.21
2022-08-26T19:41:36.998Z,57.26
2022-08-26T19:44:36.424Z,57.22
2022-08-26T19:47:09.405Z,57.25
2022-08-26T19:49:39.644Z,57.58
2022-08-26T19:52:08.942Z,57.88
2022-08-26T19:54:38.394Z,57.88
2022-08-26T19:57:07.955Z,57.99
2022-08-26T19:59:41.970Z,58.11
2022-08-26T20:02:12.543Z,58.33
2022-08-26T20:04:42.517Z,58.57
2022-08-26T20:07:15.345Z,58.93
2022-08-26T20:09:49.389Z,59.54
2022-08-26T20:12:19.324Z,59.54
2022-08-26T20:14:48.841Z,59.68
2022-08-26T20:17:18.165Z,59.65
2022-08-26T20:20:05.771Z,60.10
2022-08-26T20:23:09.454Z,72.91
2022-08-26T20:25:38.773Z,68.20
2022-08-26T20:28:08.074Z,59.34
2022-08-26T20:30:37.377Z,53.78
2022-08-26T20:33:07.329Z,53.02
2022-08-26T20:35:36.743Z,53.79
2022-08-26T20:38:06.447Z,54.79
2022-08-26T20:40:36.360Z,55.80
2022-08-26T20:43:06.825Z,57.22
2022-08-26T20:45:36.460Z,58.62
2022-08-26T20:48:05.603Z,59.39
2022-08-26T20:50:34.786Z,60.33
2022-08-26T20:53:04.143Z,68.22
2022-08-26T20:55:34.512Z,69.79
2022-08-26T20:58:03.747Z,64.82
2022-08-26T21:00:33.433Z,58.94
2022-08-26T21:03:02.719Z,55.12
2022-08-26T21:05:31.708Z,55.92
2022-08-26T21:08:00.809Z,56.96
2022-08-26T21:10:31.046Z,58.23
2022-08-26T21:13:01.493Z,59.28
2022-08-26T21:15:30.827Z,66.36
2022-08-26T21:18:01.928Z,68.48
2022-08-26T21:20:33.077Z,63.89
2022-08-26T21:23:02.274Z,57.34
2022-08-26T21:25:31.577Z,54.07
2022-08-26T21:28:00.761Z,54.64
2022-08-26T21:30:30.321Z,55.96
2022-08-26T21:32:59.629Z,57.34
2022-08-26T21:35:29.023Z,58.52
2022-08-26T21:37:58.189Z,59.92
2022-08-26T21:40:28.473Z,67.06
2022-08-26T21:42:57.941Z,69.15
2022-08-26T21:45:26.918Z,64.92
2022-08-26T21:47:56.155Z,59.23
2022-08-26T21:50:25.578Z,55.99
2022-08-26T21:52:54.849Z,57.07
2022-08-26T21:55:24.049Z,58.80
2022-08-26T21:57:53.407Z,66.26
